Time;durP1;ratioP1;P1;durP2;ratioP2;P2;SDS_P1;SDS_P2;PMS_P1;PMS_P2;Temp;Humidity;BMP_temperature;BMP_pressure;BME280_temperature;BME280_humidity;BME280_pressure;Samples;Min_cycle;Max_cycle;Signal;HPM_P1;HPM_P2
2023/10/04 00:02:09;;;;;;;0.90;0.90;;;;;;;;;;5113056;28;20441;-67
2023/10/04 00:04:38;;;;;;;0.80;0.80;;;;;;;;;;5113230;28;20929;-67
2023/10/04 00:07:07;;;;;;;0.80;0.80;;;;;;;;;;5112988;28;20555;-67
2023/10/04 00:09:34;;;;;;;0.80;0.80;;;;;;;;;;5113104;28;20891;-67
2023/10/04 00:12:03;;;;;;;0.80;0.80;;;;;;;;;;5113310;28;20535;-67
2023/10/04 00:14:30;;;;;;;0.80;0.80;;;;;;;;;;5113229;28;20982;-67
2023/10/04 00:16:59;;;;;;;0.80;0.80;;;;;;;;;;5112921;28;20453;-67
2023/10/04 00:19:28;;;;;;;0.80;0.80;;;;;;;;;;5113337;28;20655;-67
2023/10/04 00:21:55;;;;;;;0.80;0.80;;;;;;;;;;5113768;28;20470;-67
2023/10/04 00:24:23;;;;;;;0.90;0.90;;;;;;;;;;5113019;28;20981;-67
2023/10/04 00:26:50;;;;;;;0.80;0.80;;;;;;;;;;5112876;28;20486;-67
2023/10/04 00:29:18;;;;;;;0.80;0.80;;;;;;;;;;5113040;28;20452;-67
2023/10/04 00:31:47;;;;;;;0.80;0.80;;;;;;;;;;5112992;28;20442;-67
2023/10/04 00:34:14;;;;;;;0.80;0.80;;;;;;;;;;5113592;28;20427;-67
2023/10/04 00:36:43;;;;;;;0.90;0.90;;;;;;;;;;5113243;28;20527;-67
2023/10/04 00:39:13;;;;;;;0.90;0.90;;;;;;;;;;5114916;28;20531;-67
2023/10/04 00:41:42;;;;;;;0.80;0.80;;;;;;;;;;5117590;28;20440;-67
2023/10/04 00:44:10;;;;;;;0.80;0.80;;;;;;;;;;5116947;28;20964;-67
2023/10/04 00:46:41;;;;;;;0.80;0.80;;;;;;;;;;5117187;28;20516;-67
2023/10/04 00:49:08;;;;;;;0.80;0.80;;;;;;;;;;5116775;28;20473;-67
2023/10/04 00:51:36;;;;;;;0.80;0.80;;;;;;;;;;5116763;28;20973;-67
2023/10/04 00:54:04;;;;;;;0.70;0.70;;;;;;;;;;5116901;28;20441;-67
2023/10/04 00:56:31;;;;;;;0.80;0.80;;;;;;;;;;5116766;28;20433;-67
2023/10/04 00:59:03;;;;;;;0.80;0.80;;;;;;;;;;5116653;28;20450;-67
2023/10/04 01:01:31;;;;;;;0.80;0.80;;;;;;;;;;5116842;28;20424;-66
2023/10/04 01:04:00;;;;;;;0.80;0.80;;;;;;;;;;5116800;28;20440;-67
2023/10/04 01:06:28;;;;;;;0.80;0.80;;;;;;;;;;5116693;28;20437;-67
2023/10/04 01:08:56;;;;;;;0.80;0.80;;;;;;;;;;5116649;28;20434;-67
2023/10/04 01:11:23;;;;;;;0.80;0.80;;;;;;;;;;5116852;28;20433;-66
2023/10/04 01:13:53;;;;;;;0.80;0.80;;;;;;;;;;5116313;28;20485;-67
2023/10/04 01:16:23;;;;;;;0.80;0.80;;;;;;;;;;5116638;28;20446;-67
2023/10/04 01:18:51;;;;;;;0.80;0.80;;;;;;;;;;5116433;28;20463;-66
2023/10/04 01:21:18;;;;;;;0.80;0.80;;;;;;;;;;5116594;28;20530;-67
2023/10/04 01:23:47;;;;;;;0.90;0.90;;;;;;;;;;5116717;28;20891;-67
2023/10/04 01:26:25;;;;;;;0.80;0.80;;;;;;;;;;5116509;28;20436;-67
2023/10/04 01:28:52;;;;;;;0.80;0.80;;;;;;;;;;5116531;28;20486;-67
2023/10/04 01:31:20;;;;;;;0.80;0.80;;;;;;;;;;5116593;28;20834;-67
2023/10/04 01:33:48;;;;;;;0.80;0.80;;;;;;;;;;5116236;28;20493;-66
2023/10/04 01:36:15;;;;;;;0.80;0.80;;;;;;;;;;5115879;28;20452;-66
2023/10/04 01:38:43;;;;;;;0.80;0.80;;;;;;;;;;5115817;28;20958;-67
2023/10/04 01:41:11;;;;;;;0.80;0.80;;;;;;;;;;5116119;28;20441;-67
2023/10/04 01:43:39;;;;;;;0.80;0.80;;;;;;;;;;5116320;28;20443;-67
2023/10/04 01:46:06;;;;;;;0.80;0.80;;;;;;;;;;5116112;28;20440;-67
2023/10/04 01:48:35;;;;;;;0.90;0.90;;;;;;;;;;5115209;28;21001;-67
2023/10/04 01:51:04;;;;;;;0.87;0.87;;;;;;;;;;5114620;28;20448;-67
2023/10/04 01:53:33;;;;;;;0.80;0.80;;;;;;;;;;5115916;28;20452;-67
2023/10/04 01:56:00;;;;;;;0.80;0.80;;;;;;;;;;5115866;28;20438;-67
2023/10/04 01:58:29;;;;;;;0.80;0.80;;;;;;;;;;5115474;28;20535;-67
2023/10/04 02:00:57;;;;;;;0.80;0.80;;;;;;;;;;5115872;28;20803;-67
2023/10/04 02:03:25;;;;;;;0.80;0.80;;;;;;;;;;5115585;28;20491;-67
2023/10/04 02:05:57;;;;;;;0.80;0.80;;;;;;;;;;5115338;28;20497;-67
2023/10/04 02:08:24;;;;;;;0.80;0.80;;;;;;;;;;5115604;28;20515;-67
2023/10/04 02:10:52;;;;;;;0.80;0.80;;;;;;;;;;5115536;28;20436;-67
2023/10/04 02:13:19;;;;;;;0.80;0.80;;;;;;;;;;5115225;28;20432;-67
2023/10/04 02:15:51;;;;;;;0.80;0.80;;;;;;;;;;5115207;28;20869;-67
2023/10/04 02:18:19;;;;;;;0.80;0.80;;;;;;;;;;5115990;28;20526;-68
2023/10/04 02:20:49;;;;;;;0.80;0.80;;;;;;;;;;5115882;28;20444;-67
2023/10/04 02:23:16;;;;;;;0.90;0.90;;;;;;;;;;5115287;28;20465;-68
2023/10/04 02:25:43;;;;;;;0.70;0.70;;;;;;;;;;5115469;28;20499;-67
2023/10/04 02:28:11;;;;;;;0.90;0.90;;;;;;;;;;5115218;28;20488;-68
2023/10/04 02:30:38;;;;;;;0.73;0.73;;;;;;;;;;5115173;28;20440;-67
2023/10/04 02:33:08;;;;;;;0.80;0.80;;;;;;;;;;5114679;28;20972;-67
2023/10/04 02:35:43;;;;;;;0.80;0.80;;;;;;;;;;5115168;28;20546;-67
2023/10/04 02:38:16;;;;;;;0.80;0.80;;;;;;;;;;5114769;28;20432;-67
2023/10/04 02:40:44;;;;;;;0.80;0.80;;;;;;;;;;5115037;28;20427;-67
2023/10/04 02:43:13;;;;;;;0.83;0.83;;;;;;;;;;5114889;28;20441;-67
2023/10/04 02:45:42;;;;;;;0.80;0.80;;;;;;;;;;5114563;28;20519;-67
2023/10/04 02:48:13;;;;;;;0.80;0.80;;;;;;;;;;5114879;28;20515;-67
2023/10/04 02:50:40;;;;;;;0.90;0.90;;;;;;;;;;5114433;28;20428;-67
2023/10/04 02:53:12;;;;;;;0.80;0.80;;;;;;;;;;5114601;28;20531;-67
2023/10/04 02:55:39;;;;;;;0.80;0.80;;;;;;;;;;5114766;28;20491;-67
2023/10/04 02:58:07;;;;;;;0.77;0.77;;;;;;;;;;5114664;28;20782;-67
2023/10/04 03:00:35;;;;;;;0.80;0.80;;;;;;;;;;5114597;28;20441;-67
2023/10/04 03:03:04;;;;;;;0.80;0.80;;;;;;;;;;5114383;28;20536;-67
2023/10/04 03:05:34;;;;;;;0.73;0.73;;;;;;;;;;5114599;28;20481;-67
2023/10/04 03:08:06;;;;;;;0.80;0.80;;;;;;;;;;5114421;28;20480;-67
2023/10/04 03:10:33;;;;;;;0.90;0.90;;;;;;;;;;5114035;28;20429;-67
2023/10/04 03:13:02;;;;;;;0.80;0.80;;;;;;;;;;5113974;28;20448;-67
2023/10/04 03:15:30;;;;;;;0.80;0.80;;;;;;;;;;5113879;28;20499;-67
2023/10/04 03:17:58;;;;;;;0.80;0.80;;;;;;;;;;5114113;28;20535;-67
2023/10/04 03:20:29;;;;;;;0.80;0.80;;;;;;;;;;5114150;28;20447;-67
2023/10/04 03:23:00;;;;;;;0.90;0.90;;;;;;;;;;5114624;28;20735;-67
2023/10/04 03:25:27;;;;;;;0.80;0.80;;;;;;;;;;5114420;28;20447;-68
2023/10/04 03:27:55;;;;;;;0.80;0.80;;;;;;;;;;5113826;28;20485;-67
2023/10/04 03:30:23;;;;;;;0.80;0.80;;;;;;;;;;5113826;28;20445;-67
2023/10/04 03:32:52;;;;;;;0.80;0.80;;;;;;;;;;5114090;28;20527;-67
2023/10/04 03:35:21;;;;;;;0.80;0.80;;;;;;;;;;5114262;28;20443;-65
2023/10/04 03:37:54;;;;;;;0.80;0.80;;;;;;;;;;5114205;28;20440;-67
2023/10/04 03:40:23;;;;;;;0.80;0.80;;;;;;;;;;5113593;28;20436;-66
2023/10/04 03:42:50;;;;;;;0.90;0.90;;;;;;;;;;5114104;28;20441;-67
2023/10/04 03:45:20;;;;;;;0.80;0.80;;;;;;;;;;5113815;28;20517;-67
2023/10/04 03:47:50;;;;;;;0.80;0.80;;;;;;;;;;5113729;28;20848;-66
2023/10/04 03:50:20;;;;;;;0.90;0.90;;;;;;;;;;5110962;28;20440;-66
2023/10/04 03:52:47;;;;;;;0.80;0.80;;;;;;;;;;5113047;28;20444;-66
2023/10/04 03:55:15;;;;;;;0.70;0.70;;;;;;;;;;5113512;28;20439;-66
2023/10/04 03:57:44;;;;;;;0.80;0.80;;;;;;;;;;5113869;28;20977;-66
2023/10/04 04:00:16;;;;;;;0.87;0.87;;;;;;;;;;5112752;28;20954;-66
2023/10/04 04:02:44;;;;;;;0.80;0.80;;;;;;;;;;5113354;28;20476;-66
2023/10/04 04:05:14;;;;;;;0.80;0.80;;;;;;;;;;5113027;28;20937;-67
2023/10/04 04:07:41;;;;;;;0.80;0.80;;;;;;;;;;5112699;28;21035;-67
2023/10/04 04:10:09;;;;;;;0.80;0.80;;;;;;;;;;5112564;28;20461;-67
2023/10/04 04:12:37;;;;;;;0.90;0.90;;;;;;;;;;5112893;28;21098;-67
2023/10/04 04:15:09;;;;;;;0.80;0.80;;;;;;;;;;5112968;28;20440;-67
2023/10/04 04:17:37;;;;;;;0.80;0.80;;;;;;;;;;5113140;28;20425;-66
2023/10/04 04:20:14;;;;;;;0.80;0.80;;;;;;;;;;5113286;28;20462;-66
2023/10/04 04:22:41;;;;;;;0.80;0.80;;;;;;;;;;5113013;28;20432;-66
2023/10/04 04:25:14;;;;;;;0.80;0.80;;;;;;;;;;5112882;28;20512;-66
2023/10/04 04:27:43;;;;;;;0.80;0.80;;;;;;;;;;5113076;28;20525;-66
2023/10/04 04:30:17;;;;;;;0.90;0.90;;;;;;;;;;5113519;28;20446;-66
2023/10/04 04:32:45;;;;;;;0.80;0.80;;;;;;;;;;5112981;28;20423;-66
2023/10/04 04:35:16;;;;;;;0.80;0.80;;;;;;;;;;5113043;28;20819;-69
2023/10/04 04:37:45;;;;;;;0.80;0.80;;;;;;;;;;5113175;28;20428;-66
2023/10/04 04:40:23;;;;;;;0.80;0.80;;;;;;;;;;5112884;28;20922;-66
2023/10/04 04:42:50;;;;;;;0.80;0.80;;;;;;;;;;5113193;28;20419;-66
2023/10/04 04:45:25;;;;;;;0.80;0.80;;;;;;;;;;5112907;28;20447;-67
2023/10/04 04:47:52;;;;;;;0.80;0.80;;;;;;;;;;5112457;28;20483;-66
2023/10/04 04:50:22;;;;;;;0.80;0.80;;;;;;;;;;5112961;28;20470;-69
2023/10/04 04:52:50;;;;;;;0.90;0.90;;;;;;;;;;5113207;28;20470;-69
2023/10/04 04:55:18;;;;;;;0.83;0.83;;;;;;;;;;5112635;28;20455;-68
2023/10/04 04:57:45;;;;;;;0.80;0.80;;;;;;;;;;5112744;28;20533;-66
2023/10/04 05:02:55;;;;;;;0.80;0.80;;;;;;;;;;5112328;28;20817;-66
2023/10/04 05:05:22;;;;;;;0.90;0.90;;;;;;;;;;5112513;28;20525;-66
2023/10/04 05:07:50;;;;;;;0.90;0.90;;;;;;;;;;5112411;28;20526;-66
2023/10/04 05:10:18;;;;;;;0.80;0.80;;;;;;;;;;5112829;28;20798;-67
2023/10/04 05:12:46;;;;;;;0.80;0.80;;;;;;;;;;5112389;28;20961;-65
2023/10/04 05:15:24;;;;;;;0.80;0.80;;;;;;;;;;5112796;28;20769;-66
2023/10/04 05:17:51;;;;;;;0.80;0.80;;;;;;;;;;5112991;28;20415;-68
2023/10/04 05:20:21;;;;;;;0.80;0.80;;;;;;;;;;5112738;28;20442;-66
2023/10/04 05:22:50;;;;;;;0.90;0.90;;;;;;;;;;5112973;28;20441;-66
2023/10/04 05:25:17;;;;;;;0.90;0.90;;;;;;;;;;5113240;28;20443;-66
2023/10/04 05:27:46;;;;;;;0.80;0.80;;;;;;;;;;5116176;28;20548;-66
2023/10/04 05:30:16;;;;;;;0.90;0.90;;;;;;;;;;5116614;28;20445;-66
2023/10/04 05:32:43;;;;;;;0.90;0.90;;;;;;;;;;5115974;28;20447;-66
2023/10/04 05:35:14;;;;;;;0.80;0.80;;;;;;;;;;5116171;28;20520;-66
2023/10/04 05:37:44;;;;;;;0.90;0.90;;;;;;;;;;5115823;28;20437;-66
2023/10/04 05:40:16;;;;;;;0.80;0.80;;;;;;;;;;5116283;28;20500;-66
2023/10/04 05:42:44;;;;;;;0.80;0.80;;;;;;;;;;5116255;28;20838;-66
2023/10/04 05:45:12;;;;;;;0.80;0.80;;;;;;;;;;5116019;28;20446;-66
2023/10/04 05:47:39;;;;;;;0.80;0.80;;;;;;;;;;5115268;28;20515;-66
2023/10/04 05:50:10;;;;;;;0.80;0.80;;;;;;;;;;5115227;28;20476;-65
2023/10/04 05:52:39;;;;;;;0.80;0.80;;;;;;;;;;5115815;28;20837;-66
2023/10/04 05:55:09;;;;;;;0.80;0.80;;;;;;;;;;5115700;28;20448;-66
2023/10/04 05:57:36;;;;;;;0.80;0.80;;;;;;;;;;5115565;28;20455;-66
2023/10/04 06:00:21;;;;;;;0.80;0.80;;;;;;;;;;5115359;28;20443;-68
2023/10/04 06:02:48;;;;;;;0.80;0.80;;;;;;;;;;5115338;28;20435;-67
2023/10/04 06:05:16;;;;;;;0.80;0.80;;;;;;;;;;5115130;28;20436;-66
2023/10/04 06:07:44;;;;;;;0.80;0.80;;;;;;;;;;5115612;28;20442;-67
2023/10/04 06:10:12;;;;;;;0.80;0.80;;;;;;;;;;5115416;28;20541;-67
2023/10/04 06:12:40;;;;;;;0.80;0.80;;;;;;;;;;5115484;28;20435;-66
2023/10/04 06:15:10;;;;;;;0.80;0.80;;;;;;;;;;5114990;28;20904;-66
2023/10/04 06:17:42;;;;;;;0.90;0.90;;;;;;;;;;5114884;28;20959;-66
2023/10/04 06:20:23;;;;;;;0.90;0.90;;;;;;;;;;5115236;28;20428;-67
2023/10/04 06:22:50;;;;;;;0.80;0.80;;;;;;;;;;5115438;28;20424;-67
2023/10/04 06:25:21;;;;;;;0.90;0.90;;;;;;;;;;5115184;28;20866;-66
2023/10/04 06:27:48;;;;;;;0.80;0.80;;;;;;;;;;5115441;28;20426;-67
2023/10/04 06:30:18;;;;;;;0.80;0.80;;;;;;;;;;5114672;28;20473;-66
2023/10/04 06:32:45;;;;;;;0.80;0.80;;;;;;;;;;5115002;28;20920;-66
2023/10/04 06:35:13;;;;;;;0.90;0.90;;;;;;;;;;5114955;28;20450;-67
2023/10/04 06:37:40;;;;;;;0.80;0.80;;;;;;;;;;5114031;28;20447;-66
2023/10/04 06:40:15;;;;;;;0.80;0.80;;;;;;;;;;5114902;28;20875;-66
2023/10/04 06:42:45;;;;;;;0.80;0.80;;;;;;;;;;5114811;28;20896;-67
2023/10/04 06:45:13;;;;;;;0.90;0.90;;;;;;;;;;5114871;28;20419;-66
2023/10/04 06:47:42;;;;;;;0.90;0.90;;;;;;;;;;5114200;28;20979;-67
2023/10/04 06:50:09;;;;;;;0.80;0.80;;;;;;;;;;5114738;28;20475;-66
2023/10/04 06:52:37;;;;;;;0.80;0.80;;;;;;;;;;5114670;28;20439;-66
2023/10/04 06:55:08;;;;;;;0.80;0.80;;;;;;;;;;5114708;28;20519;-67
2023/10/04 06:57:35;;;;;;;0.80;0.80;;;;;;;;;;5114191;28;20484;-66
2023/10/04 07:00:12;;;;;;;0.80;0.80;;;;;;;;;;5114676;28;20450;-67
2023/10/04 07:02:40;;;;;;;0.80;0.80;;;;;;;;;;5114421;28;20529;-66
2023/10/04 07:05:08;;;;;;;0.90;0.90;;;;;;;;;;5114257;28;20435;-67
2023/10/04 07:07:36;;;;;;;0.80;0.80;;;;;;;;;;5114877;28;20439;-66
2023/10/04 07:10:03;;;;;;;0.80;0.80;;;;;;;;;;5114270;28;20486;-66
2023/10/04 07:12:31;;;;;;;0.80;0.80;;;;;;;;;;5114171;28;20518;-67
2023/10/04 07:14:58;;;;;;;0.90;0.90;;;;;;;;;;5114191;28;20448;-67
2023/10/04 07:17:30;;;;;;;0.80;0.80;;;;;;;;;;5113842;28;20438;-67
2023/10/04 07:19:58;;;;;;;0.83;0.83;;;;;;;;;;5114224;28;20435;-67
2023/10/04 07:22:29;;;;;;;0.80;0.80;;;;;;;;;;5113838;28;20907;-67
2023/10/04 07:24:58;;;;;;;0.80;0.80;;;;;;;;;;5113918;28;20430;-66
2023/10/04 07:27:26;;;;;;;0.90;0.90;;;;;;;;;;5114033;28;20449;-67
2023/10/04 07:29:54;;;;;;;0.80;0.80;;;;;;;;;;5113604;28;20490;-67
2023/10/04 07:32:21;;;;;;;0.80;0.80;;;;;;;;;;5113882;28;20514;-68
2023/10/04 07:34:50;;;;;;;0.80;0.80;;;;;;;;;;5113945;28;20443;-67
2023/10/04 07:37:17;;;;;;;0.80;0.80;;;;;;;;;;5113511;28;20961;-67
2023/10/04 07:39:44;;;;;;;0.80;0.80;;;;;;;;;;5113818;28;20521;-66
2023/10/04 07:42:11;;;;;;;0.77;0.77;;;;;;;;;;5114086;28;20511;-67
2023/10/04 07:44:39;;;;;;;0.90;0.90;;;;;;;;;;5113153;28;20435;-67
2023/10/04 07:47:06;;;;;;;0.80;0.80;;;;;;;;;;5112956;28;20967;-67
2023/10/04 07:49:34;;;;;;;0.80;0.80;;;;;;;;;;5112637;28;20488;-67
2023/10/04 07:52:03;;;;;;;0.90;0.90;;;;;;;;;;5113746;28;20560;-67
2023/10/04 07:54:31;;;;;;;0.70;0.70;;;;;;;;;;5113160;28;20441;-67
2023/10/04 07:56:58;;;;;;;0.80;0.80;;;;;;;;;;5113444;28;20534;-67
2023/10/04 07:59:26;;;;;;;0.80;0.80;;;;;;;;;;5113176;28;20455;-67
2023/10/04 08:01:54;;;;;;;0.80;0.80;;;;;;;;;;5113345;28;20926;-67
2023/10/04 08:04:21;;;;;;;0.80;0.80;;;;;;;;;;5113541;28;20436;-67
2023/10/04 08:06:52;;;;;;;0.80;0.80;;;;;;;;;;5113568;28;20545;-67
2023/10/04 08:09:22;;;;;;;0.87;0.87;;;;;;;;;;5113293;28;20505;-67
2023/10/04 08:11:52;;;;;;;0.80;0.80;;;;;;;;;;5113095;28;20905;-66
2023/10/04 08:14:21;;;;;;;0.80;0.80;;;;;;;;;;5113450;28;20443;-66
2023/10/04 08:16:50;;;;;;;0.90;0.90;;;;;;;;;;5113479;28;20427;-67
2023/10/04 08:19:18;;;;;;;0.80;0.80;;;;;;;;;;5112728;28;20445;-67
2023/10/04 08:21:45;;;;;;;0.90;0.90;;;;;;;;;;5113336;28;20441;-67
2023/10/04 08:24:12;;;;;;;0.80;0.80;;;;;;;;;;5113200;28;20438;-67
2023/10/04 08:26:41;;;;;;;0.80;0.80;;;;;;;;;;5113244;28;20454;-66
2023/10/04 08:29:08;;;;;;;0.80;0.80;;;;;;;;;;5113106;28;20553;-67
2023/10/04 08:31:36;;;;;;;0.80;0.80;;;;;;;;;;5113127;28;20850;-67
2023/10/04 08:34:03;;;;;;;0.90;0.90;;;;;;;;;;5113059;28;20450;-67
2023/10/04 08:36:33;;;;;;;0.80;0.80;;;;;;;;;;5112998;28;20930;-67
2023/10/04 08:39:00;;;;;;;0.80;0.80;;;;;;;;;;5112890;28;20545;-66
2023/10/04 08:41:28;;;;;;;0.80;0.80;;;;;;;;;;5112773;28;20434;-66
2023/10/04 08:43:56;;;;;;;0.80;0.80;;;;;;;;;;5113403;28;20515;-67
2023/10/04 08:46:24;;;;;;;0.70;0.70;;;;;;;;;;5113277;28;20525;-67
2023/10/04 08:48:53;;;;;;;0.80;0.80;;;;;;;;;;5112946;28;20501;-67
2023/10/04 08:51:27;;;;;;;0.70;0.70;;;;;;;;;;5112868;28;20867;-66
2023/10/04 08:53:58;;;;;;;0.70;0.70;;;;;;;;;;5112773;28;20417;-67
2023/10/04 08:56:27;;;;;;;0.80;0.80;;;;;;;;;;5112815;28;20438;-66
2023/10/04 08:58:55;;;;;;;0.80;0.80;;;;;;;;;;5112756;28;20534;-67
2023/10/04 09:01:24;;;;;;;0.80;0.80;;;;;;;;;;5116747;28;20857;-67
2023/10/04 09:03:52;;;;;;;0.80;0.80;;;;;;;;;;5116868;28;20585;-67
2023/10/04 09:06:20;;;;;;;0.80;0.80;;;;;;;;;;5116599;28;20442;-67
2023/10/04 09:08:49;;;;;;;0.80;0.80;;;;;;;;;;5116586;28;20446;-65
2023/10/04 09:11:16;;;;;;;0.70;0.70;;;;;;;;;;5115969;28;20607;-67
2023/10/04 09:13:47;;;;;;;0.80;0.80;;;;;;;;;;5116234;28;20528;-65
2023/10/04 09:16:22;;;;;;;0.80;0.80;;;;;;;;;;5116046;28;20418;-67
2023/10/04 09:18:50;;;;;;;0.70;0.70;;;;;;;;;;5116370;28;20806;-66
2023/10/04 09:21:18;;;;;;;0.80;0.80;;;;;;;;;;5115866;28;21010;-67
2023/10/04 09:23:46;;;;;;;0.70;0.70;;;;;;;;;;5116418;28;20930;-66
2023/10/04 09:26:16;;;;;;;0.80;0.80;;;;;;;;;;5116162;28;20439;-66
2023/10/04 09:28:44;;;;;;;0.80;0.80;;;;;;;;;;5116250;28;20524;-66
2023/10/04 09:31:12;;;;;;;0.80;0.80;;;;;;;;;;5115988;28;20565;-66
2023/10/04 09:33:40;;;;;;;0.80;0.80;;;;;;;;;;5116191;28;20849;-66
2023/10/04 09:36:10;;;;;;;0.80;0.80;;;;;;;;;;5115885;28;20558;-66
2023/10/04 09:38:39;;;;;;;0.80;0.80;;;;;;;;;;5115664;28;20427;-66
2023/10/04 09:41:09;;;;;;;0.80;0.80;;;;;;;;;;5116036;28;20469;-66
2023/10/04 09:43:37;;;;;;;0.70;0.70;;;;;;;;;;5116747;28;20427;-66
2023/10/04 09:46:07;;;;;;;0.70;0.70;;;;;;;;;;5116040;28;20589;-67
2023/10/04 09:48:36;;;;;;;0.70;0.70;;;;;;;;;;5116057;28;20471;-66
2023/10/04 09:51:05;;;;;;;0.70;0.70;;;;;;;;;;5115448;28;20483;-66
2023/10/04 09:53:36;;;;;;;0.80;0.80;;;;;;;;;;5115713;28;20429;-66
2023/10/04 09:56:04;;;;;;;0.70;0.70;;;;;;;;;;5115966;28;20537;-66
2023/10/04 09:58:32;;;;;;;0.70;0.70;;;;;;;;;;5116232;28;20516;-66
2023/10/04 10:01:04;;;;;;;0.70;0.70;;;;;;;;;;5115193;28;21020;-66
2023/10/04 10:03:34;;;;;;;0.70;0.70;;;;;;;;;;5116136;28;20427;-66
2023/10/04 10:06:02;;;;;;;0.80;0.80;;;;;;;;;;5115645;28;20824;-66
2023/10/04 10:08:33;;;;;;;0.80;0.80;;;;;;;;;;5115256;28;20465;-66
2023/10/04 10:11:02;;;;;;;0.70;0.70;;;;;;;;;;5114578;28;20473;-65
2023/10/04 10:13:31;;;;;;;0.80;0.80;;;;;;;;;;5115459;28;20449;-65
2023/10/04 10:15:58;;;;;;;0.73;0.73;;;;;;;;;;5115305;28;20435;-66
2023/10/04 10:18:26;;;;;;;0.70;0.70;;;;;;;;;;5115531;28;20491;-66
2023/10/04 10:20:55;;;;;;;1.53;1.43;;;;;;;;;;5114835;28;20868;-66
2023/10/04 10:23:22;;;;;;;0.80;0.80;;;;;;;;;;5102217;28;20511;-67
2023/10/04 10:26:08;;;;;;;0.70;0.70;;;;;;;;;;5094695;28;20816;-67
2023/10/04 10:28:37;;;;;;;0.80;0.80;;;;;;;;;;5094539;28;20481;-68
2023/10/04 10:31:07;;;;;;;0.70;0.70;;;;;;;;;;5094239;28;20523;-67
2023/10/04 10:33:34;;;;;;;0.80;0.80;;;;;;;;;;5094649;28;20519;-66
2023/10/04 10:36:01;;;;;;;0.70;0.70;;;;;;;;;;5094498;28;20529;-66
2023/10/04 10:38:29;;;;;;;0.70;0.70;;;;;;;;;;5094787;28;20518;-66
2023/10/04 10:40:56;;;;;;;0.80;0.80;;;;;;;;;;5094417;28;20495;-66
2023/10/04 10:43:23;;;;;;;0.80;0.80;;;;;;;;;;5093994;28;20963;-66
2023/10/04 10:45:52;;;;;;;0.80;0.80;;;;;;;;;;5094445;28;20444;-67
2023/10/04 10:48:31;;;;;;;0.80;0.80;;;;;;;;;;5094207;28;20818;-66
2023/10/04 10:50:58;;;;;;;0.70;0.70;;;;;;;;;;5094193;28;20470;-66
2023/10/04 10:53:26;;;;;;;0.80;0.80;;;;;;;;;;5094085;28;20438;-67
2023/10/04 10:55:54;;;;;;;0.80;0.80;;;;;;;;;;5094130;28;20443;-67
2023/10/04 10:58:21;;;;;;;0.70;0.70;;;;;;;;;;5094231;28;20454;-67
2023/10/04 11:00:48;;;;;;;0.80;0.80;;;;;;;;;;5093964;28;20498;-67
2023/10/04 11:03:20;;;;;;;0.70;0.70;;;;;;;;;;5094152;28;20475;-67
2023/10/04 11:05:47;;;;;;;0.70;0.70;;;;;;;;;;5094373;28;20805;-68
2023/10/04 11:08:15;;;;;;;0.70;0.70;;;;;;;;;;5093861;28;20958;-68
2023/10/04 11:10:43;;;;;;;0.70;0.70;;;;;;;;;;5093826;28;20567;-68
2023/10/04 11:13:17;;;;;;;0.70;0.70;;;;;;;;;;5094064;28;20496;-68
2023/10/04 11:15:46;;;;;;;0.70;0.70;;;;;;;;;;5094299;28;20439;-68
2023/10/04 11:18:16;;;;;;;0.80;0.80;;;;;;;;;;5093586;28;20496;-68
2023/10/04 11:20:43;;;;;;;0.70;0.70;;;;;;;;;;5093965;28;20441;-68
2023/10/04 11:23:11;;;;;;;0.70;0.70;;;;;;;;;;5093277;28;20458;-67
2023/10/04 11:25:39;;;;;;;0.70;0.70;;;;;;;;;;5093406;28;20940;-67
2023/10/04 11:28:07;;;;;;;0.80;0.80;;;;;;;;;;5093104;28;21039;-68
2023/10/04 11:30:34;;;;;;;0.80;0.80;;;;;;;;;;5092847;28;20468;-68
2023/10/04 11:33:02;;;;;;;0.70;0.70;;;;;;;;;;5093349;28;20861;-67
2023/10/04 11:35:37;;;;;;;0.80;0.80;;;;;;;;;;5093235;28;20438;-67
2023/10/04 11:38:15;;;;;;;0.70;0.70;;;;;;;;;;5093372;28;20418;-67
2023/10/04 11:40:46;;;;;;;0.80;0.80;;;;;;;;;;5093505;28;20428;-67
2023/10/04 11:43:14;;;;;;;0.77;0.77;;;;;;;;;;5093047;28;20435;-67
2023/10/04 11:45:42;;;;;;;0.80;0.80;;;;;;;;;;5093394;28;20447;-66
2023/10/04 11:48:10;;;;;;;0.80;0.80;;;;;;;;;;5092950;28;20470;-67
2023/10/04 11:50:46;;;;;;;0.70;0.70;;;;;;;;;;5093169;28;20517;-68
2023/10/04 11:53:14;;;;;;;0.73;0.73;;;;;;;;;;5092877;28;20435;-67
2023/10/04 11:55:43;;;;;;;0.70;0.70;;;;;;;;;;5093292;28;20584;-67
2023/10/04 11:58:11;;;;;;;0.70;0.70;;;;;;;;;;5092730;28;20950;-67
2023/10/04 12:00:38;;;;;;;1.57;1.47;;;;;;;;;;5092677;28;20451;-68
2023/10/04 12:03:09;;;;;;;0.70;0.70;;;;;;;;;;5092771;28;20530;-67
2023/10/04 12:05:36;;;;;;;0.70;0.70;;;;;;;;;;5092698;28;20435;-67
2023/10/04 12:08:07;;;;;;;0.70;0.70;;;;;;;;;;5092624;28;21019;-67
2023/10/04 12:10:34;;;;;;;0.70;0.70;;;;;;;;;;5092774;28;20561;-67
2023/10/04 12:13:02;;;;;;;0.70;0.70;;;;;;;;;;5093072;28;20449;-67
2023/10/04 12:15:29;;;;;;;0.70;0.70;;;;;;;;;;5092914;28;20439;-67
2023/10/04 12:17:56;;;;;;;0.70;0.70;;;;;;;;;;5092670;28;20773;-67
2023/10/04 12:20:24;;;;;;;0.70;0.70;;;;;;;;;;5092875;28;20532;-66
2023/10/04 12:22:51;;;;;;;0.70;0.70;;;;;;;;;;5092274;28;20851;-67
2023/10/04 12:25:21;;;;;;;0.70;0.70;;;;;;;;;;5092630;28;20450;-67
2023/10/04 12:27:50;;;;;;;0.70;0.70;;;;;;;;;;5093171;28;20444;-67
2023/10/04 12:30:20;;;;;;;0.70;0.70;;;;;;;;;;5092011;28;20963;-67
2023/10/04 12:32:48;;;;;;;0.70;0.70;;;;;;;;;;5092584;28;20800;-67
2023/10/04 12:35:15;;;;;;;0.70;0.70;;;;;;;;;;5095119;28;20441;-67
2023/10/04 12:37:43;;;;;;;0.70;0.70;;;;;;;;;;5096423;28;20475;-67
2023/10/04 12:40:17;;;;;;;0.70;0.70;;;;;;;;;;5096002;28;20446;-67
2023/10/04 12:42:48;;;;;;;0.80;0.80;;;;;;;;;;5095617;28;20422;-67
2023/10/04 12:45:16;;;;;;;0.70;0.70;;;;;;;;;;5095755;28;20439;-67
2023/10/04 12:47:43;;;;;;;0.70;0.70;;;;;;;;;;5095806;28;20474;-68
2023/10/04 12:50:14;;;;;;;0.70;0.70;;;;;;;;;;5096405;28;20861;-66
2023/10/04 12:52:42;;;;;;;0.80;0.80;;;;;;;;;;5096464;28;20807;-67
2023/10/04 12:55:11;;;;;;;0.70;0.70;;;;;;;;;;5096352;28;20439;-67
2023/10/04 12:57:38;;;;;;;0.80;0.80;;;;;;;;;;5096756;28;20441;-67
2023/10/04 13:00:13;;;;;;;0.70;0.70;;;;;;;;;;5096441;28;20943;-67
2023/10/04 13:02:42;;;;;;;0.70;0.70;;;;;;;;;;5111204;28;20498;-67
2023/10/04 13:05:11;;;;;;;0.80;0.80;;;;;;;;;;5116591;28;20959;-67
2023/10/04 13:07:38;;;;;;;0.70;0.70;;;;;;;;;;5116576;28;20473;-66
2023/10/04 13:10:09;;;;;;;0.70;0.70;;;;;;;;;;5116177;28;20441;-67
2023/10/04 13:12:37;;;;;;;0.70;0.70;;;;;;;;;;5116155;28;20449;-67
2023/10/04 13:15:05;;;;;;;0.70;0.70;;;;;;;;;;5116496;28;20492;-67
2023/10/04 13:17:34;;;;;;;0.70;0.70;;;;;;;;;;5116450;28;20506;-67
2023/10/04 13:20:02;;;;;;;0.70;0.70;;;;;;;;;;5115958;28;20528;-67
2023/10/04 13:22:29;;;;;;;0.70;0.70;;;;;;;;;;5115722;28;20491;-68
2023/10/04 13:24:57;;;;;;;0.80;0.80;;;;;;;;;;5116148;28;20852;-66
2023/10/04 13:27:24;;;;;;;0.70;0.70;;;;;;;;;;5116237;28;20445;-67
2023/10/04 13:29:52;;;;;;;0.70;0.70;;;;;;;;;;5115994;28;20543;-68
2023/10/04 13:32:19;;;;;;;0.80;0.80;;;;;;;;;;5115756;28;20481;-67
2023/10/04 13:34:47;;;;;;;0.70;0.70;;;;;;;;;;5116163;28;20531;-67
2023/10/04 13:37:15;;;;;;;0.70;0.70;;;;;;;;;;5116220;28;20522;-67
2023/10/04 13:39:43;;;;;;;0.70;0.70;;;;;;;;;;5116150;28;20499;-67
2023/10/04 13:42:12;;;;;;;0.70;0.70;;;;;;;;;;5116566;28;20864;-67
2023/10/04 13:44:39;;;;;;;0.70;0.70;;;;;;;;;;5115873;28;20450;-67
2023/10/04 13:47:08;;;;;;;0.70;0.70;;;;;;;;;;5114700;28;20436;-67
2023/10/04 13:49:35;;;;;;;0.80;0.80;;;;;;;;;;5116138;28;20478;-67
2023/10/04 13:52:03;;;;;;;0.70;0.70;;;;;;;;;;5115971;28;20896;-67
2023/10/04 13:54:32;;;;;;;0.70;0.70;;;;;;;;;;5115512;28;20471;-68
2023/10/04 13:56:59;;;;;;;0.70;0.70;;;;;;;;;;5115624;28;20441;-68
2023/10/04 13:59:29;;;;;;;0.70;0.70;;;;;;;;;;5115495;28;20458;-68
2023/10/04 14:01:58;;;;;;;0.70;0.70;;;;;;;;;;5115450;28;20533;-68
2023/10/04 14:04:25;;;;;;;0.70;0.70;;;;;;;;;;5115639;28;20442;-68
2023/10/04 14:06:52;;;;;;;0.80;0.80;;;;;;;;;;5115946;28;20534;-67
2023/10/04 14:09:22;;;;;;;0.80;0.80;;;;;;;;;;5115210;28;20438;-67
2023/10/04 14:11:50;;;;;;;0.70;0.70;;;;;;;;;;5115800;28;20931;-67
2023/10/04 14:14:17;;;;;;;0.80;0.80;;;;;;;;;;5115635;28;20987;-67
2023/10/04 14:16:45;;;;;;;0.70;0.70;;;;;;;;;;5115243;28;20466;-68
2023/10/04 14:19:14;;;;;;;0.70;0.70;;;;;;;;;;5115105;28;20449;-67
2023/10/04 14:21:41;;;;;;;0.80;0.80;;;;;;;;;;5115213;28;20443;-67
2023/10/04 14:24:08;;;;;;;0.70;0.70;;;;;;;;;;5115638;28;20448;-68
2023/10/04 14:26:38;;;;;;;0.70;0.70;;;;;;;;;;5115384;28;20444;-67
2023/10/04 14:29:05;;;;;;;0.70;0.70;;;;;;;;;;5115116;28;20823;-68
2023/10/04 14:31:33;;;;;;;0.70;0.70;;;;;;;;;;5114920;28;20507;-67
2023/10/04 14:34:02;;;;;;;0.70;0.70;;;;;;;;;;5115070;28;20457;-67
2023/10/04 14:36:33;;;;;;;0.80;0.80;;;;;;;;;;5113815;28;20454;-67
2023/10/04 14:39:02;;;;;;;0.70;0.70;;;;;;;;;;5114510;28;20427;-69
2023/10/04 14:41:30;;;;;;;0.70;0.70;;;;;;;;;;5115049;28;20455;-68
2023/10/04 14:43:59;;;;;;;0.70;0.70;;;;;;;;;;5114831;28;20441;-68
2023/10/04 14:46:26;;;;;;;0.80;0.80;;;;;;;;;;5114737;28;20949;-68
2023/10/04 14:48:53;;;;;;;0.80;0.80;;;;;;;;;;5114741;28;20557;-68
2023/10/04 14:51:21;;;;;;;0.70;0.70;;;;;;;;;;5114387;28;20576;-68
2023/10/04 14:53:48;;;;;;;0.70;0.70;;;;;;;;;;5114792;28;20469;-68
2023/10/04 14:56:16;;;;;;;0.80;0.80;;;;;;;;;;5114244;28;20536;-68